Picton Castle — E5WP — position and weather

sailwx.info

Track history (hours):
 
Tides and Currents Weather Stations Pressure Air Temp Water Temp Dewpoint Dewpoint Depression Visibility Wind Speed Wind Dir Waves Ship Positions

Picton Castle (Cook Islands)

Ship's website: http://www.picton-castle.com/

Last reported at 2019-May-15 21:14 UTC. Time now 2019-Jun-16 14:36 UTC.
Position N 18°38' W 064°46'.
Warning: this ship's position is 31 days out of date.

Length 37 m; draft 4.6 m.

Type: Sailing vessel. MMSI: 518000019.

Date/timePositionNaut miles runAvg speedWind from/ knotsBaromVisibWave heightAir tempDewpointWater temp
2019-May-15 21:14N 18°38' W 064°46'2 7.6
2019-May-15 21:00N 18°36' W 064°46'4 7.6
2019-May-15 20:30N 18°33' W 064°47'2 4.3
2019-May-15 20:00N 18°31' W 064°48'1 1.2
2019-May-15 19:30N 18°30' W 064°48'0 0.3
2019-May-15 19:00N 18°30' W 064°48'1 1.1
2019-May-15 18:30N 18°29' W 064°48'1 1.5
2019-May-15 17:56N 18°29' W 064°48'  
2019-May-10 19:12N 17°32' W 063°18'1 5.3
2019-May-10 18:59N 17°32' W 063°17'21 7.5
2019-May-10 16:09N 17°20' W 062°58'2 7.6
2019-May-10 15:51N 17°19' W 062°56'  
Track history (hours):
 
Tides and Currents Weather Stations Pressure Air Temp Water Temp Dewpoint Dewpoint Depression Visibility Wind Speed Wind Dir Waves Ship Positions

Picton Castle (Cook Islands)

Ship's website: http://www.picton-castle.com/

Last reported at 2019-May-15 21:14 UTC. Time now 2019-Jun-16 14:36 UTC.
Position N 18°38' W 064°46'.
Warning: this ship's position is 31 days out of date.

Length 37 m; draft 4.6 m.

Type: Sailing vessel. MMSI: 518000019.

Date/timePositionNaut miles runAvg speedWind from/ knotsBaromVisibWave heightAir tempDewpointWater temp
2019-May-15 21:14N 18°38' W 064°46'2 7.6
2019-May-15 21:00N 18°36' W 064°46'4 7.6
2019-May-15 20:30N 18°33' W 064°47'2 4.3
2019-May-15 20:00N 18°31' W 064°48'1 1.2
2019-May-15 19:30N 18°30' W 064°48'0 0.3
2019-May-15 19:00N 18°30' W 064°48'1 1.1
2019-May-15 18:30N 18°29' W 064°48'1 1.5
2019-May-15 17:56N 18°29' W 064°48'  
2019-May-10 19:12N 17°32' W 063°18'1 5.3
2019-May-10 18:59N 17°32' W 063°17'21 7.5
2019-May-10 16:09N 17°20' W 062°58'2 7.6
2019-May-10 15:51N 17°19' W 062°56'  

Dump ship's entire track history